Date,TemperatureHighF,TemperatureAvgF,TemperatureLowF,DewpointHighF,DewpointAvgF,DewpointLowF,HumidityHigh,HumidityAvg,HumidityLow,PressureMaxIn,PressureMinIn,WindSpeedMaxMPH,WindSpeedAvgMPH,GustSpeedMaxMPH,PrecipitationSumIn
2013-1-1,24,14,6,9,5,0,84,66,45,0.00,40.00,12,5,17,0.00
2013-1-2,39,25,10,25,16,7,87,70,46,0.00,40.00,14,6,19,0.00
2013-1-3,32,25,14,28,18,9,85,74,52,0.00,40.00,17,8,23,0.00
2013-1-4,43,28,13,25,18,8,90,70,39,0.00,40.00,16,4,22,0.00
2013-1-5,41,33,26,33,28,21,91,79,68,0.00,40.00,20,7,27,0.00
2013-1-6,36,26,19,22,16,9,83,65,40,0.00,40.00,22,9,30,0.00
2013-1-7,51,35,23,28,23,18,84,64,32,0.00,40.00,15,6,24,0.00
2013-1-8,50,39,30,32,29,26,86,68,45,0.00,40.00,17,6,26,0.00
2013-1-9,53,40,30,33,30,27,92,70,39,0.00,40.00,14,4,19,0.00
2013-1-10,45,38,29,39,32,22,96,83,40,0.00,40.00,14,7,25,0.07
2013-1-11,58,49,40,50,44,39,96,82,56,0.00,40.00,16,8,24,0.00
2013-1-12,58,32,21,42,20,10,74,60,40,0.00,40.00,22,12,35,0.01
2013-1-13,22,17,12,11,7,4,70,63,53,0.00,40.00,17,10,26,0.00
2013-1-14,33,19,9,13,8,4,80,62,34,0.00,40.00,9,2,12,0.00
2013-1-15,35,22,12,19,11,6,91,63,32,0.00,40.00,9,3,13,0.00
2013-1-16,47,33,18,32,20,9,85,60,46,0.00,40.00,12,5,21,0.00
2013-1-17,37,29,21,32,19,12,85,66,39,0.00,40.00,14,6,21,0.00
2013-1-18,56,42,23,29,26,20,86,56,34,0.00,40.00,28,10,37,0.00
2013-1-19,58,45,25,32,28,14,64,53,33,0.00,40.00,23,11,37,0.00
2013-1-20,25,16,10,14,8,4,86,70,56,0.00,40.00,17,9,28,0.03
2013-1-21,11,7,3,7,-1,-6,83,69,57,0.00,40.00,21,11,28,0.00
2013-1-22,17,10,3,4,0,-4,76,63,50,0.00,40.00,9,4,12,0.00
2013-1-23,33,20,10,18,9,0,78,61,53,0.00,40.00,22,10,32,0.00
2013-1-24,24,14,6,8,0,-5,63,54,40,0.00,40.00,16,8,21,0.00
2013-1-25,42,29,18,22,15,6,71,56,41,0.00,40.00,20,8,26,0.00
2013-1-26,37,23,10,17,9,3,73,57,37,0.00,40.00,10,6,16,0.00
2013-1-27,43,34,29,42,30,17,96,85,56,0.00,40.00,12,7,19,0.09
2013-1-28,56,44,37,54,43,36,96,95,92,0.00,40.00,9,5,15,0.00
2013-1-29,61,46,34,59,44,33,95,93,74,0.00,40.00,16,8,35,0.50
2013-1-30,35,26,18,33,23,9,96,87,69,0.00,40.00,29,15,42,0.81
2013-1-31,21,8,2,13,-2,-8,74,65,61,0.00,40.00,23,15,31,0.00